createdAt,value
2022-10-05T00:01:27.319Z,101536.19
2022-10-05T00:04:00.345Z,101530.75
2022-10-05T00:06:30.117Z,101528.00
2022-10-05T00:08:56.931Z,101535.09
2022-10-05T00:11:23.636Z,101538.38
2022-10-05T00:13:50.480Z,101535.47
2022-10-05T00:16:21.103Z,101528.31
2022-10-05T00:18:50.614Z,101540.38
2022-10-05T00:21:23.288Z,101521.34
2022-10-05T00:23:50.881Z,101525.44
2022-10-05T00:26:26.503Z,101527.59
2022-10-05T00:28:54.572Z,101528.53
2022-10-05T00:31:24.376Z,101529.03
2022-10-05T00:33:51.453Z,101527.44
2022-10-05T00:36:18.724Z,101523.25
2022-10-05T00:38:45.610Z,101531.88
2022-10-05T00:41:37.492Z,101532.38
2022-10-05T00:44:33.128Z,101531.88
2022-10-05T00:47:18.401Z,101524.41
2022-10-05T00:50:08.550Z,101521.66
2022-10-05T00:53:05.940Z,101530.16
2022-10-05T00:55:58.072Z,101532.16
2022-10-05T00:58:24.796Z,101536.03
2022-10-05T01:01:25.672Z,101532.47
2022-10-05T01:04:27.775Z,101527.56
2022-10-05T01:07:25.558Z,101541.19
2022-10-05T01:10:09.832Z,101547.06
2022-10-05T01:13:03.067Z,101553.06
2022-10-05T01:15:42.882Z,101542.91
2022-10-05T01:18:25.657Z,101538.34
2022-10-05T01:21:17.742Z,101531.13
2022-10-05T01:24:14.054Z,101545.88
2022-10-05T01:26:53.466Z,101549.19
2022-10-05T01:29:45.180Z,101553.00
2022-10-05T01:32:51.922Z,101548.72
2022-10-05T01:35:37.674Z,101544.19
2022-10-05T01:38:21.616Z,101556.66
2022-10-05T01:41:22.673Z,101555.06
2022-10-05T01:44:28.490Z,101553.00
2022-10-05T01:47:29.057Z,101549.13
2022-10-05T01:50:16.922Z,101554.06
2022-10-05T01:53:00.840Z,101555.06
2022-10-05T01:55:41.633Z,101553.78
2022-10-05T01:58:36.954Z,101559.75
2022-10-05T02:01:31.409Z,101553.81
2022-10-05T02:04:42.675Z,101550.66
2022-10-05T02:07:23.042Z,101556.25
2022-10-05T02:10:06.022Z,101569.56
2022-10-05T02:12:42.480Z,101562.31
2022-10-05T02:15:15.083Z,101557.56
2022-10-05T02:17:54.982Z,101554.59
2022-10-05T02:20:35.422Z,101549.84
2022-10-05T02:23:19.467Z,101551.06
2022-10-05T02:25:56.924Z,101560.69
2022-10-05T02:28:40.687Z,101558.69
2022-10-05T02:31:36.324Z,101558.16
2022-10-05T02:34:23.092Z,101558.69
2022-10-05T02:37:14.543Z,101556.72
2022-10-05T02:40:00.143Z,101556.84
2022-10-05T02:43:28.791Z,101557.44
2022-10-05T02:46:13.978Z,101551.44
2022-10-05T02:49:05.587Z,101552.63
2022-10-05T02:51:35.398Z,101558.50
2022-10-05T02:54:14.312Z,101553.31
2022-10-05T02:57:03.273Z,101556.13
2022-10-05T02:59:43.653Z,101558.28
2022-10-05T03:02:58.724Z,101549.00
2022-10-05T03:05:35.458Z,101545.84
2022-10-05T03:08:09.615Z,101543.50
2022-10-05T03:11:05.579Z,101541.75
2022-10-05T03:14:00.278Z,101538.16
2022-10-05T03:16:36.584Z,101526.00
2022-10-05T03:19:47.507Z,101523.47
2022-10-05T03:22:45.354Z,101517.09
2022-10-05T03:25:57.449Z,101523.66
2022-10-05T03:28:39.875Z,101519.22
2022-10-05T03:31:19.583Z,101508.75
2022-10-05T03:34:09.424Z,101510.44
2022-10-05T03:37:03.885Z,101514.56
2022-10-05T03:39:53.918Z,101514.38
2022-10-05T03:42:33.392Z,101511.81
2022-10-05T03:45:18.506Z,101509.09
2022-10-05T03:47:51.176Z,101507.81
2022-10-05T03:50:48.432Z,101510.00
2022-10-05T03:53:20.427Z,101506.28
2022-10-05T03:56:05.108Z,101506.53
2022-10-05T03:58:57.547Z,101510.94
2022-10-05T04:01:33.543Z,101512.13
2022-10-05T04:04:05.017Z,101505.66
2022-10-05T04:06:41.124Z,101510.56
2022-10-05T04:09:25.052Z,101510.63
2022-10-05T04:12:04.683Z,101513.63
2022-10-05T04:14:41.597Z,101519.84
2022-10-05T04:17:37.671Z,101522.50
2022-10-05T04:20:27.556Z,101523.34
2022-10-05T04:23:04.536Z,101518.28
2022-10-05T04:25:43.646Z,101514.47
2022-10-05T04:28:33.720Z,101518.41
2022-10-05T04:31:04.355Z,101529.59
2022-10-05T04:33:33.394Z,101537.66
2022-10-05T04:36:22.520Z,101542.28
2022-10-05T04:38:55.547Z,101545.13
2022-10-05T04:41:56.850Z,101541.00
2022-10-05T04:44:44.887Z,101537.63
2022-10-05T04:47:36.797Z,101530.03
2022-10-05T04:50:26.836Z,101536.56
2022-10-05T04:53:08.129Z,101524.53
2022-10-05T04:55:46.398Z,101532.78
2022-10-05T04:58:32.569Z,101535.09
2022-10-05T05:01:22.366Z,101537.41
2022-10-05T05:04:12.289Z,101536.69
2022-10-05T05:07:12.805Z,101528.34
2022-10-05T05:09:39.770Z,101532.34
2022-10-05T05:12:33.981Z,101543.03
2022-10-05T05:15:34.626Z,101538.81
2022-10-05T05:18:21.335Z,101542.50
2022-10-05T05:21:21.624Z,101547.75
2022-10-05T05:23:48.410Z,101557.13
2022-10-05T05:26:27.268Z,101556.47
2022-10-05T05:29:42.567Z,101556.13
2022-10-05T05:32:46.763Z,101554.31
2022-10-05T05:35:29.071Z,101558.06
2022-10-05T05:38:14.141Z,101557.41
2022-10-05T05:40:59.267Z,101568.16
2022-10-05T05:43:56.097Z,101564.00
2022-10-05T05:46:51.135Z,101568.25
2022-10-05T05:49:22.368Z,101560.72
2022-10-05T05:52:09.829Z,101554.13
2022-10-05T05:54:44.628Z,101562.72
2022-10-05T05:57:30.673Z,101562.63
2022-10-05T06:00:03.775Z,101567.81
2022-10-05T06:02:58.741Z,101571.34
2022-10-05T06:05:40.712Z,101578.63
2022-10-05T06:08:33.476Z,101580.19
2022-10-05T06:11:16.801Z,101594.78
2022-10-05T06:13:44.269Z,101592.13
2022-10-05T06:16:19.423Z,101595.34
2022-10-05T06:18:55.488Z,101599.94
2022-10-05T06:21:30.378Z,101594.72
2022-10-05T06:24:14.026Z,101592.66
2022-10-05T06:27:18.554Z,101601.28
2022-10-05T06:29:57.377Z,101599.31
2022-10-05T06:32:33.527Z,101601.59
2022-10-05T06:35:15.328Z,101604.94
2022-10-05T06:38:00.618Z,101591.59
2022-10-05T06:40:30.763Z,101582.13
2022-10-05T06:43:05.765Z,101589.34
2022-10-05T06:45:53.211Z,101577.13
2022-10-05T06:48:40.787Z,101576.31
2022-10-05T06:51:55.110Z,101578.28
2022-10-05T06:54:53.855Z,101575.81
2022-10-05T06:57:27.203Z,101582.28
2022-10-05T07:00:04.887Z,101579.91
2022-10-05T07:02:40.751Z,101579.53
2022-10-05T07:05:33.437Z,101579.28
2022-10-05T07:08:09.910Z,101586.19
2022-10-05T07:10:57.916Z,101589.28
2022-10-05T07:13:40.270Z,101606.00
2022-10-05T07:16:22.938Z,101610.19
2022-10-05T07:19:05.212Z,101609.25
2022-10-05T07:21:39.611Z,101619.31
2022-10-05T07:24:29.183Z,101620.00
2022-10-05T07:27:02.311Z,101620.31
2022-10-05T07:30:05.915Z,101622.56
2022-10-05T07:32:55.620Z,101620.31
2022-10-05T07:36:01.254Z,101620.03
2022-10-05T07:38:52.966Z,101621.44
2022-10-05T07:41:31.230Z,101623.25
2022-10-05T07:44:19.086Z,101636.44
2022-10-05T07:47:00.815Z,101638.81
2022-10-05T07:49:47.928Z,101645.56
2022-10-05T07:52:22.027Z,101635.47
2022-10-05T07:55:26.088Z,101640.09
2022-10-05T07:58:06.168Z,101630.81
2022-10-05T08:00:55.748Z,101630.84
2022-10-05T08:03:38.323Z,101643.06
2022-10-05T08:06:10.199Z,101641.50
2022-10-05T08:08:48.095Z,101637.31
2022-10-05T08:11:19.195Z,101639.53
2022-10-05T08:14:03.827Z,101646.41
2022-10-05T08:16:36.385Z,101642.88
2022-10-05T08:19:15.282Z,101642.75
2022-10-05T08:21:49.262Z,101645.97
2022-10-05T08:24:44.323Z,101644.25
2022-10-05T08:27:50.128Z,101645.78
2022-10-05T08:30:17.327Z,101632.72
2022-10-05T08:32:43.869Z,101638.31
2022-10-05T08:35:22.648Z,101641.41
2022-10-05T08:37:51.014Z,101647.28
2022-10-05T08:40:58.511Z,101647.69
2022-10-05T08:43:49.484Z,101635.59
2022-10-05T08:46:54.062Z,101639.34
2022-10-05T08:49:57.893Z,101638.47
2022-10-05T08:52:46.998Z,101633.34
2022-10-05T08:55:34.083Z,101632.41
2022-10-05T08:58:30.481Z,101639.53
2022-10-05T09:01:18.458Z,101636.38
2022-10-05T09:04:01.392Z,101634.78
2022-10-05T09:06:53.797Z,101622.63
2022-10-05T09:09:26.490Z,101617.06
2022-10-05T09:12:11.171Z,101600.28
2022-10-05T09:15:31.815Z,101611.03
2022-10-05T09:18:07.783Z,101619.13
2022-10-05T09:20:54.181Z,101626.50
2022-10-05T09:23:49.084Z,101628.09
2022-10-05T09:26:40.931Z,101627.84
2022-10-05T09:29:49.487Z,101633.19
2022-10-05T09:32:54.019Z,101610.81
2022-10-05T09:35:45.369Z,101604.78
2022-10-05T09:38:53.597Z,101603.47
2022-10-05T09:41:23.297Z,101595.97
2022-10-05T09:44:01.887Z,101593.97
2022-10-05T09:46:41.164Z,101587.09
2022-10-05T09:49:35.323Z,101581.34
2022-10-05T09:52:35.166Z,101574.25
2022-10-05T09:55:06.641Z,101568.69
2022-10-05T09:57:50.850Z,101566.44
2022-10-05T10:00:28.355Z,101560.88
2022-10-05T10:03:10.026Z,101561.66
2022-10-05T10:05:57.931Z,101562.91
2022-10-05T10:09:02.107Z,101575.06
2022-10-05T10:11:50.489Z,101572.69
2022-10-05T10:15:11.360Z,101572.00
2022-10-05T10:17:59.603Z,101569.47
2022-10-05T10:20:56.959Z,101568.97
2022-10-05T10:24:00.407Z,101564.81
2022-10-05T10:26:51.675Z,101567.69
2022-10-05T10:29:53.554Z,101566.53
2022-10-05T10:32:33.875Z,101551.25
2022-10-05T10:35:21.862Z,101551.84
2022-10-05T10:38:23.715Z,101554.25
2022-10-05T10:41:27.722Z,101552.78
2022-10-05T10:44:12.941Z,101567.63
2022-10-05T10:47:41.560Z,101562.38
2022-10-05T10:50:36.061Z,101557.91
2022-10-05T10:53:36.173Z,101553.88
2022-10-05T10:56:21.296Z,101549.41
2022-10-05T10:59:17.401Z,101551.19
2022-10-05T11:01:53.412Z,101548.91
2022-10-05T11:04:57.267Z,101547.84
2022-10-05T11:07:58.291Z,101534.22
2022-10-05T11:10:27.935Z,101541.19
2022-10-05T11:13:00.833Z,101531.69
2022-10-05T11:15:42.804Z,101538.59
2022-10-05T11:18:24.268Z,101527.75
2022-10-05T11:21:41.460Z,101523.50
2022-10-05T11:24:38.787Z,101505.75
2022-10-05T11:27:37.758Z,101508.00
2022-10-05T11:30:25.882Z,101507.59
2022-10-05T11:33:25.110Z,101508.09
2022-10-05T11:36:38.187Z,101522.63
2022-10-05T11:39:20.723Z,101524.75
2022-10-05T11:42:19.163Z,101520.63
2022-10-05T11:45:36.319Z,101507.22
2022-10-05T11:48:33.761Z,101507.50
2022-10-05T11:51:37.317Z,101501.25
2022-10-05T11:54:18.399Z,101498.69
2022-10-05T11:56:54.682Z,101502.34
2022-10-05T11:59:30.475Z,101490.53
2022-10-05T12:02:19.079Z,101501.66
2022-10-05T12:05:10.815Z,101506.56
2022-10-05T12:07:37.569Z,101503.34
2022-10-05T12:10:23.414Z,101496.13
2022-10-05T12:13:02.718Z,101500.97
2022-10-05T12:15:56.921Z,101483.94
2022-10-05T12:18:34.030Z,101496.50
2022-10-05T12:21:09.373Z,101497.91
2022-10-05T12:23:50.948Z,101490.03
2022-10-05T12:26:29.755Z,101488.81
2022-10-05T12:29:13.924Z,101483.56
2022-10-05T12:32:03.029Z,101490.91
2022-10-05T12:34:41.897Z,101479.63
2022-10-05T12:37:47.801Z,101487.53
2022-10-05T12:40:22.733Z,101476.78
2022-10-05T12:43:01.345Z,101477.78
2022-10-05T12:45:43.531Z,101467.47
2022-10-05T12:48:44.013Z,101463.97
2022-10-05T12:51:41.953Z,101459.72
2022-10-05T12:54:29.924Z,101468.75
2022-10-05T12:57:05.959Z,101466.31
2022-10-05T12:59:41.704Z,101470.00
2022-10-05T13:02:33.313Z,101467.19
2022-10-05T13:05:11.729Z,101469.53
2022-10-05T13:07:47.387Z,101465.00
2022-10-05T13:10:28.012Z,101452.97
2022-10-05T13:13:16.435Z,101461.16
2022-10-05T13:16:01.721Z,101456.41
2022-10-05T13:18:51.050Z,101460.09
2022-10-05T13:21:33.053Z,101456.09
2022-10-05T13:24:18.501Z,101460.84
2022-10-05T13:26:52.009Z,101463.72
2022-10-05T13:29:31.086Z,101451.59
2022-10-05T13:32:03.785Z,101466.91
2022-10-05T13:34:33.300Z,101464.03
2022-10-05T13:37:09.063Z,101456.31
2022-10-05T13:39:49.704Z,101466.09
2022-10-05T13:42:49.174Z,101460.91
2022-10-05T13:45:24.668Z,101461.91
2022-10-05T13:48:03.673Z,101456.31
2022-10-05T13:50:34.610Z,101457.81
2022-10-05T13:53:31.190Z,101455.19
2022-10-05T13:56:14.862Z,101453.25
2022-10-05T13:58:48.141Z,101449.28
2022-10-05T14:01:22.715Z,101443.88
2022-10-05T14:04:16.951Z,101448.53
2022-10-05T14:06:45.086Z,101441.00
2022-10-05T14:09:22.065Z,101432.09
2022-10-05T14:11:51.176Z,101427.09
2022-10-05T14:14:28.269Z,101432.47
2022-10-05T14:17:00.770Z,101427.09
2022-10-05T14:19:32.409Z,101432.28
2022-10-05T14:22:02.157Z,101428.09
2022-10-05T14:24:46.139Z,101428.50
2022-10-05T14:27:21.467Z,101428.66
2022-10-05T14:30:00.502Z,101429.69
2022-10-05T14:32:31.982Z,101420.94
2022-10-05T14:35:28.151Z,101423.81
2022-10-05T14:38:01.250Z,101418.75
2022-10-05T14:40:35.013Z,101418.03
2022-10-05T14:43:31.071Z,101410.59
2022-10-05T14:46:00.896Z,101406.56
2022-10-05T14:48:37.526Z,101407.03
2022-10-05T14:51:10.791Z,101404.78
2022-10-05T14:53:41.519Z,101398.22
2022-10-05T14:56:11.255Z,101399.81
2022-10-05T14:58:45.664Z,101402.50
2022-10-05T15:01:24.092Z,101397.75
2022-10-05T15:04:16.784Z,101395.63
2022-10-05T15:06:57.612Z,101397.50
2022-10-05T15:09:34.962Z,101396.53
2022-10-05T15:12:03.090Z,101396.91
2022-10-05T15:14:32.482Z,101393.28
2022-10-05T15:17:17.033Z,101388.19
2022-10-05T15:20:16.203Z,101387.88
2022-10-05T15:22:54.248Z,101392.34
2022-10-05T15:25:37.853Z,101381.47
2022-10-05T15:28:19.547Z,101388.97
2022-10-05T15:31:17.592Z,101380.78
2022-10-05T15:34:24.802Z,101376.44
2022-10-05T15:37:12.047Z,101375.50
2022-10-05T15:40:02.319Z,101378.56
2022-10-05T15:42:38.283Z,101370.53
2022-10-05T15:45:06.555Z,101378.00
2022-10-05T15:47:56.236Z,101381.75
2022-10-05T15:50:27.950Z,101375.47
2022-10-05T15:53:45.773Z,101376.72
2022-10-05T15:56:21.488Z,101381.44
2022-10-05T15:58:55.746Z,101390.88
2022-10-05T16:01:44.402Z,101385.56
2022-10-05T16:04:17.027Z,101393.09
2022-10-05T16:07:20.120Z,101397.31
2022-10-05T16:10:16.956Z,101398.22
2022-10-05T16:13:05.369Z,101390.84
2022-10-05T16:16:02.479Z,101399.94
2022-10-05T16:18:47.322Z,101400.59
2022-10-05T16:21:29.323Z,101400.13
2022-10-05T16:24:10.633Z,101393.41
2022-10-05T16:26:43.109Z,101408.16
2022-10-05T16:29:28.562Z,101407.00
2022-10-05T16:32:04.698Z,101407.50
2022-10-05T16:34:40.349Z,101409.88
2022-10-05T16:37:26.104Z,101406.53
2022-10-05T16:40:00.122Z,101413.22
2022-10-05T16:43:19.978Z,101419.25
2022-10-05T16:46:09.824Z,101411.88
2022-10-05T16:48:52.005Z,101411.38
2022-10-05T16:51:31.113Z,101409.38
2022-10-05T16:54:18.077Z,101407.22
2022-10-05T16:56:54.161Z,101412.38
2022-10-05T16:59:48.153Z,101412.06
2022-10-05T17:02:31.599Z,101410.91
2022-10-05T17:05:14.363Z,101410.72
2022-10-05T17:08:11.977Z,101416.94
2022-10-05T17:10:50.721Z,101425.63
2022-10-05T17:13:40.925Z,101416.44
2022-10-05T17:16:13.790Z,101424.28
2022-10-05T17:19:10.782Z,101421.31
2022-10-05T17:22:03.141Z,101423.81
2022-10-05T17:24:46.531Z,101422.13
2022-10-05T17:27:21.716Z,101410.75
2022-10-05T17:30:12.655Z,101412.41
2022-10-05T17:32:56.274Z,101410.91
2022-10-05T17:35:49.259Z,101416.25
2022-10-05T17:38:22.434Z,101415.59
2022-10-05T17:41:24.408Z,101417.78
2022-10-05T17:44:09.895Z,101418.28
2022-10-05T17:46:39.699Z,101413.28
2022-10-05T17:49:26.898Z,101417.13
2022-10-05T17:52:12.429Z,101422.47
2022-10-05T17:55:03.646Z,101432.19
2022-10-05T17:57:31.322Z,101419.97
2022-10-05T18:00:04.918Z,101429.00
2022-10-05T18:02:41.041Z,101426.31
2022-10-05T18:05:15.216Z,101422.81
2022-10-05T18:07:48.184Z,101430.66
2022-10-05T18:10:28.647Z,101431.84
2022-10-05T18:13:01.535Z,101428.50
2022-10-05T18:15:28.192Z,101438.00
2022-10-05T18:18:00.930Z,101436.00
2022-10-05T18:20:31.927Z,101438.34
2022-10-05T18:23:07.804Z,101428.50
2022-10-05T18:25:43.342Z,101428.81
2022-10-05T18:28:50.995Z,101434.28
2022-10-05T18:31:43.815Z,101428.22
2022-10-05T18:34:36.023Z,101436.28
2022-10-05T18:37:25.750Z,101440.28
2022-10-05T18:40:05.709Z,101444.25
2022-10-05T18:42:48.636Z,101455.44
2022-10-05T18:45:36.513Z,101457.25
2022-10-05T18:48:29.754Z,101456.72
2022-10-05T18:51:26.117Z,101445.38
2022-10-05T18:54:06.196Z,101462.56
2022-10-05T18:56:42.820Z,101462.75
2022-10-05T18:59:24.546Z,101466.88
2022-10-05T19:02:11.298Z,101456.44
2022-10-05T19:04:56.889Z,101458.81
2022-10-05T19:07:40.752Z,101460.97
2022-10-05T19:10:31.018Z,101459.41
2022-10-05T19:13:15.873Z,101460.72
2022-10-05T19:15:57.910Z,101460.41
2022-10-05T19:19:04.284Z,101457.75
2022-10-05T19:21:57.891Z,101464.09
2022-10-05T19:24:33.791Z,101462.41
2022-10-05T19:27:38.818Z,101462.19
2022-10-05T19:30:22.994Z,101469.22
2022-10-05T19:33:13.671Z,101477.72
2022-10-05T19:35:47.426Z,101472.00
2022-10-05T19:38:23.520Z,101471.47
2022-10-05T19:41:11.361Z,101474.19
2022-10-05T19:44:13.371Z,101479.47
2022-10-05T19:46:59.902Z,101476.78
2022-10-05T19:49:56.551Z,101476.91
2022-10-05T19:52:40.773Z,101479.44
2022-10-05T19:55:26.418Z,101475.66
2022-10-05T19:57:57.750Z,101470.31
2022-10-05T20:00:25.862Z,101480.84
2022-10-05T20:03:12.152Z,101478.81
2022-10-05T20:05:40.136Z,101479.63
2022-10-05T20:08:08.132Z,101484.97
2022-10-05T20:10:34.949Z,101479.75
2022-10-05T20:13:03.726Z,101484.72
2022-10-05T20:15:53.969Z,101477.56
2022-10-05T20:18:57.741Z,101483.34
2022-10-05T20:21:50.878Z,101491.69
2022-10-05T20:24:28.751Z,101491.19
2022-10-05T20:27:06.396Z,101493.31
2022-10-05T20:29:38.634Z,101490.91
2022-10-05T20:32:18.100Z,101493.09
2022-10-05T20:34:48.469Z,101490.19
2022-10-05T20:37:17.572Z,101499.56
2022-10-05T20:39:44.989Z,101495.63
2022-10-05T20:42:11.735Z,101498.31
2022-10-05T20:44:38.573Z,101495.78
2022-10-05T20:47:09.523Z,101502.44
2022-10-05T20:49:37.935Z,101498.38
2022-10-05T20:52:05.989Z,101498.38
2022-10-05T20:54:32.740Z,101500.03
2022-10-05T20:56:59.425Z,101507.78
2022-10-05T20:59:26.284Z,101500.78
2022-10-05T21:01:52.964Z,101499.81
2022-10-05T21:04:22.668Z,101506.59
2022-10-05T21:06:50.065Z,101493.72
2022-10-05T21:09:19.522Z,101499.53
2022-10-05T21:11:50.242Z,101500.13
2022-10-05T21:14:17.200Z,101497.09
2022-10-05T21:16:45.855Z,101499.06
2022-10-05T21:19:14.527Z,101503.03
2022-10-05T21:21:43.226Z,101502.34
2022-10-05T21:24:13.712Z,101495.63
2022-10-05T21:26:41.828Z,101500.41
2022-10-05T21:29:12.579Z,101504.94
2022-10-05T21:31:39.968Z,101512.22
2022-10-05T21:34:06.983Z,101507.50
2022-10-05T21:36:33.675Z,101506.66
2022-10-05T21:39:00.524Z,101511.22
2022-10-05T21:41:27.511Z,101510.38
2022-10-05T21:43:54.271Z,101506.91
2022-10-05T21:46:25.497Z,101510.75
2022-10-05T21:48:53.905Z,101504.03
2022-10-05T21:51:24.097Z,101511.00
2022-10-05T21:53:55.277Z,101501.78
2022-10-05T21:56:25.815Z,101506.22
2022-10-05T21:58:52.858Z,101498.97
2022-10-05T22:01:22.668Z,101499.88
2022-10-05T22:03:49.872Z,101501.28
2022-10-05T22:06:16.646Z,101508.38
2022-10-05T22:08:43.524Z,101502.13
2022-10-05T22:11:13.646Z,101499.03
2022-10-05T22:13:46.017Z,101498.41
2022-10-05T22:16:13.664Z,101494.31
2022-10-05T22:18:41.061Z,101499.38
2022-10-05T22:22:07.578Z,101500.97
2022-10-05T22:25:15.983Z,101502.53
2022-10-05T22:28:13.750Z,101498.44
2022-10-05T22:30:42.813Z,101495.22
2022-10-05T22:33:09.857Z,101504.75
2022-10-05T22:35:36.921Z,101494.25
2022-10-05T22:38:04.314Z,101491.88
2022-10-05T22:40:31.509Z,101488.91
2022-10-05T22:42:58.240Z,101492.53
2022-10-05T22:45:30.349Z,101490.31
2022-10-05T22:47:59.239Z,101479.81
2022-10-05T22:50:25.973Z,101493.31
2022-10-05T22:52:52.855Z,101488.16
2022-10-05T22:55:19.513Z,101487.72
2022-10-05T22:57:46.459Z,101494.31
2022-10-05T23:00:13.466Z,101492.78
2022-10-05T23:02:42.103Z,101485.34
2022-10-05T23:05:10.693Z,101488.56
2022-10-05T23:07:42.487Z,101488.28
2022-10-05T23:10:12.176Z,101496.84
2022-10-05T23:12:39.118Z,101496.03
2022-10-05T23:15:06.642Z,101502.75
2022-10-05T23:17:35.098Z,101503.00
2022-10-05T23:20:02.297Z,101502.59
2022-10-05T23:22:29.084Z,101508.19
2022-10-05T23:24:55.940Z,101508.75
2022-10-05T23:27:22.627Z,101504.41
2022-10-05T23:29:49.381Z,101505.13
2022-10-05T23:32:16.172Z,101515.91
2022-10-05T23:34:42.795Z,101513.38
2022-10-05T23:37:09.502Z,101514.03
2022-10-05T23:39:36.197Z,101513.31
2022-10-05T23:42:02.996Z,101516.28
2022-10-05T23:44:29.660Z,101522.44
2022-10-05T23:46:56.390Z,101522.28
2022-10-05T23:49:23.142Z,101524.09
2022-10-05T23:51:49.731Z,101516.09
2022-10-05T23:54:16.506Z,101519.78
2022-10-05T23:56:43.295Z,101520.28
2022-10-05T23:59:09.990Z,101521.25
